Tuesday, October 23, 2018, 10:47 PM EDT
Back to Local

KAKR, Akron Fulton International

Location: Akron, OH, United States Lat: 41.033
Local Time: 10:47 PM EDT ( 2:47 GMT) Lon: -81.467
Time Zone: US/Eastern Elev: 1069 ft

Show me the last for .
Show Coded

Time T Td Feel RH Dir Speed Gust Alt SLP Vis Weather Sky Remarks
2018-10-23 21:54 43 36 - 76 - Calm - 30.20 30.21 10 BKN070 None
2018-10-23 20:54 45 36 - 70 - Calm - 30.20 30.21 10 BKN070 None
2018-10-23 19:54 47 36 45 65 290° 5 - 30.19 30.20 10 SCT038 6-hr Min Temp (8pm): 46.9°F
6-hr Max Temp (8pm): 55.9°F
2018-10-23 18:54 49 35 45 58 300° 9 - 30.18 30.19 10 SCT060 None
2018-10-23 17:54 52 35 - 52 290° 10 - 30.16 30.17 10 FEW070 None
2018-10-23 16:54 53 34 - 48 290° 15 21 30.15 30.15 10 FEW045 SCT060 None
2018-10-23 15:54 53 37 - 54 330° 9 - 30.13 30.14 10 FEW045 BKN055 None
2018-10-23 14:54 56 36 - 46 310° 14 23 30.12 30.13 10 BKN065 None
2018-10-23 13:54 54 34 - 46 300° 14 - 30.12 30.12 10 SCT044 OVC060 6-hr Min Temp (2pm): 45.0°F
6-hr Max Temp (2pm): 57.9°F
2018-10-23 12:54 55 38 - 52 330° 12 22 30.11 30.11 10 FEW035 SCT048 BKN055 None
2018-10-23 12:10 54 41 - 61 310° 9 - 30.10 - 10 SCT026 BKN031 None
2018-10-23 11:54 54 41 - 61 290° 17 23 30.10 30.10 10 BKN026 BKN031 None
2018-10-23 11:47 54 41 - 61 300° 16 22 30.09 - 10 BKN024 None
2018-10-23 10:54 53 40 - 60 290° 17 21 30.07 30.07 10 CLR None
2018-10-23 09:54 50 39 45 65 280° 13 - 30.05 30.06 10 CLR None
2018-10-23 08:54 47 39 43 73 250° 9 - 30.04 30.04 10 CLR None
2018-10-23 07:54 45 38 40 76 230° 10 - 30.02 30.02 10 CLR 6-hr Min Temp (8am): 44.1°F
6-hr Max Temp (8am): 46.0°F
2018-10-23 06:54 44 38 39 78 210° 9 - 30.00 30.01 10 CLR None
2018-10-23 05:54 45 38 42 76 230° 6 - 30.01 30.01 10 BKN085 None
2018-10-23 04:54 44 38 40 78 210° 8 - 30.01 30.01 10 CLR None
2018-10-23 03:54 45 38 41 76 220° 8 - 30.02 30.02 10 CLR None
2018-10-23 02:54 45 37 41 73 220° 8 - 30.03 30.03 10 CLR None
2018-10-23 01:54 46 38 42 73 220° 8 - 30.04 30.04 10 CLR 6-hr Min Temp (2am): 45.0°F
6-hr Max Temp (2am): 53.1°F
2018-10-23 00:54 48 38 45 67 230° 6 - 30.03 30.04 10 CLR 24-hr Min Temp (1am): 34.0°F
24-hr Max Temp (1am): 60.1°F
2018-10-22 23:54 46 38 45 73 220° 3 - 30.03 30.04 10 CLR None
2018-10-22 22:54 49 39 48 68 250° 3 - 30.04 30.05 10 BKN050 None

Support USWX by starting your Amazon purchase here.